Time;durP1;ratioP1;P1;durP2;ratioP2;P2;SDS_P1;SDS_P2;PMS_P1;PMS_P2;Temp;Humidity;BMP_temperature;BMP_pressure;BME280_temperature;BME280_humidity;BME280_pressure;Samples;Min_cycle;Max_cycle;Signal;HPM_P1;HPM_P2
2022/07/25 00:01:03;;;;;;;1.70;1.60;;;;;;;21.95;100.00;101149.47;5037048;28;20270;-69
2022/07/25 00:03:29;;;;;;;2.03;1.93;;;;;;;21.86;100.00;101139.06;5042987;28;20527;-69
2022/07/25 00:05:54;;;;;;;1.87;1.77;;;;;;;21.81;100.00;101119.94;5040083;28;20480;-68
2022/07/25 00:08:20;;;;;;;2.20;2.00;;;;;;;21.86;100.00;101127.31;5043441;28;20191;-69
2022/07/25 00:10:46;;;;;;;1.90;1.77;;;;;;;21.95;100.00;101135.81;5042423;28;20262;-69
2022/07/25 00:13:11;;;;;;;2.00;1.60;;;;;;;21.86;100.00;101125.41;5047711;28;20204;-69
2022/07/25 00:15:36;;;;;;;2.20;2.00;;;;;;;21.79;100.00;101099.44;5041622;28;20819;-68
2022/07/25 00:18:02;;;;;;;2.23;2.03;;;;;;;21.92;100.00;101125.41;5043957;28;20184;-70
2022/07/25 00:20:27;;;;;;;2.90;2.27;;;;;;;21.95;100.00;101116.69;5043643;28;20680;-70
2022/07/25 00:22:53;;;;;;;2.40;2.20;;;;;;;21.96;100.00;101118.31;5054187;28;20237;-69
2022/07/25 00:25:18;;;;;;;2.17;2.00;;;;;;;21.95;100.00;101120.25;5045005;28;20204;-69
2022/07/25 00:27:43;;;;;;;2.50;2.30;;;;;;;21.98;100.00;101102.50;5046472;28;20198;-69
2022/07/25 00:30:09;;;;;;;2.53;2.33;;;;;;;22.01;100.00;101104.69;5043088;28;20184;-69
2022/07/25 00:32:35;;;;;;;2.90;2.60;;;;;;;21.96;100.00;101105.50;5047420;28;20219;-70
2022/07/25 00:35:00;;;;;;;2.63;2.43;;;;;;;21.66;100.00;101082.44;5047808;28;20175;-69
2022/07/25 00:37:25;;;;;;;2.50;2.30;;;;;;;21.89;100.00;101092.09;5045308;28;20207;-71
2022/07/25 00:39:51;;;;;;;2.73;2.30;;;;;;;21.88;100.00;101093.19;5053655;28;20325;-69
2022/07/25 00:42:16;;;;;;;2.90;2.63;;;;;;;21.82;100.00;101080.63;5047975;28;20192;-69
2022/07/25 00:44:42;;;;;;;3.07;2.77;;;;;;;21.83;100.00;101079.50;5045599;28;20229;-69
2022/07/25 00:47:07;;;;;;;3.03;2.77;;;;;;;21.89;100.00;101081.16;5045767;28;20222;-69
2022/07/25 00:49:33;;;;;;;4.60;3.20;;;;;;;21.81;100.00;101076.25;5043390;28;20510;-69
2022/07/25 00:51:59;;;;;;;2.63;2.43;;;;;;;21.44;100.00;101019.06;5043491;28;20192;-69
2022/07/25 00:54:24;;;;;;;3.03;2.73;;;;;;;21.83;100.00;101076.78;5051168;28;20661;-68
2022/07/25 00:56:50;;;;;;;3.50;3.20;;;;;;;21.68;100.00;101071.28;5056163;28;20571;-69
2022/07/25 00:59:16;;;;;;;3.43;3.13;;;;;;;21.80;100.00;101085.50;5051702;28;20191;-68
2022/07/25 01:01:44;;;;;;;3.33;3.03;;;;;;;21.49;100.00;101054.53;5050296;28;20199;-69
2022/07/25 01:04:10;;;;;;;3.50;3.20;;;;;;;21.58;100.00;101068.50;5048093;28;20465;-68
2022/07/25 01:06:35;;;;;;;3.43;3.07;;;;;;;21.54;100.00;101051.84;5048533;28;20480;-69
2022/07/25 01:09:01;;;;;;;4.43;3.57;;;;;;;21.70;100.00;101065.53;5047861;28;20429;-69
2022/07/25 01:11:26;;;;;;;3.87;3.43;;;;;;;21.61;100.00;101067.97;5046227;28;20233;-69
2022/07/25 01:13:52;;;;;;;3.90;3.60;;;;;;;21.41;100.00;101035.97;5047395;28;20282;-69
2022/07/25 01:16:17;;;;;;;4.10;3.70;;;;;;;21.58;100.00;101049.38;5047471;28;20286;-68
2022/07/25 01:18:43;;;;;;;4.57;4.17;;;;;;;21.64;100.00;101062.00;5049482;28;20187;-69
2022/07/25 01:21:09;;;;;;;4.73;4.23;;;;;;;21.62;100.00;101051.34;5041018;28;20607;-68
2022/07/25 01:23:34;;;;;;;5.20;4.80;;;;;;;21.43;100.00;101042.78;5048543;28;20282;-70
2022/07/25 01:25:59;;;;;;;6.97;5.33;;;;;;;21.54;100.00;101040.94;5044602;28;20649;-69
2022/07/25 01:28:25;;;;;;;8.17;4.43;;;;;;;21.59;100.00;101032.75;5043895;28;20198;-69
2022/07/25 01:30:50;;;;;;;6.10;4.80;;;;;;;21.69;100.00;101029.22;5050502;28;20184;-69
2022/07/25 01:33:17;;;;;;;5.60;5.10;;;;;;;21.40;100.00;101013.31;5044544;28;20204;-69
2022/07/25 01:35:44;;;;;;;5.73;5.10;;;;;;;21.45;100.00;101028.88;5042918;28;20234;-68
2022/07/25 01:38:09;;;;;;;7.30;6.30;;;;;;;21.43;100.00;101029.13;5049338;28;20445;-68
2022/07/25 01:40:35;;;;;;;6.93;6.23;;;;;;;21.56;100.00;101021.56;5045909;28;20958;-68
2022/07/25 01:43:00;;;;;;;6.20;5.60;;;;;;;21.51;100.00;101005.16;5045061;28;20216;-69
2022/07/25 01:45:26;;;;;;;5.53;5.03;;;;;;;21.60;100.00;101006.28;5038745;28;20203;-69
2022/07/25 01:47:51;;;;;;;6.87;6.17;;;;;;;21.21;100.00;100955.66;5042453;28;20196;-69
2022/07/25 01:50:17;;;;;;;7.60;6.90;;;;;;;21.42;100.00;100997.50;5046226;28;20187;-67
2022/07/25 01:52:43;;;;;;;6.90;6.20;;;;;;;21.49;100.00;100999.16;5036761;28;20194;-69
2022/07/25 01:55:09;;;;;;;7.40;6.70;;;;;;;21.48;100.00;100995.59;5057032;28;20194;-69
2022/07/25 01:57:35;;;;;;;6.20;5.60;;;;;;;21.49;100.00;100990.97;5039966;28;20437;-68
2022/07/25 02:00:00;;;;;;;6.30;5.70;;;;;;;21.44;100.00;100969.97;5042923;28;20442;-69
2022/07/25 02:02:25;;;;;;;5.93;5.33;;;;;;;21.44;100.00;100970.78;5042084;28;20200;-69
2022/07/25 02:04:51;;;;;;;7.30;6.60;;;;;;;21.38;100.00;100965.56;5043515;28;20602;-69
2022/07/25 02:07:16;;;;;;;8.80;6.90;;;;;;;21.37;100.00;100983.81;5043363;28;20219;-69
2022/07/25 02:09:42;;;;;;;6.53;5.93;;;;;;;21.38;100.00;100973.75;5042956;28;20549;-69
2022/07/25 02:12:08;;;;;;;8.80;6.07;;;;;;;21.35;100.00;100938.75;5052942;28;20188;-69
2022/07/25 02:14:33;;;;;;;6.17;5.57;;;;;;;21.52;100.00;100960.41;5041133;28;20211;-69
2022/07/25 02:16:58;;;;;;;6.40;5.80;;;;;;;21.44;100.00;100961.75;5038147;28;20194;-69
2022/07/25 02:19:24;;;;;;;6.33;5.73;;;;;;;21.42;100.00;100964.75;5040146;28;20195;-69
2022/07/25 02:21:49;;;;;;;7.00;6.10;;;;;;;21.17;100.00;100962.72;5042567;28;20198;-69
2022/07/25 02:24:15;;;;;;;7.20;6.50;;;;;;;21.16;100.00;100955.63;5043536;28;20202;-69
2022/07/25 02:26:40;;;;;;;8.13;7.23;;;;;;;21.21;100.00;100946.66;5038859;28;20791;-69
2022/07/25 02:29:06;;;;;;;8.57;7.30;;;;;;;21.19;100.00;100946.09;5045012;28;20245;-69
2022/07/25 02:31:31;;;;;;;7.60;6.90;;;;;;;21.28;100.00;100951.84;5044511;28;20191;-69
2022/07/25 02:33:57;;;;;;;6.30;5.70;;;;;;;21.27;100.00;100942.84;5041310;28;20269;-69
2022/07/25 02:36:22;;;;;;;6.80;6.20;;;;;;;21.21;100.00;100938.47;5035993;28;20616;-69
2022/07/25 02:38:47;;;;;;;7.17;6.47;;;;;;;21.32;100.00;100939.31;5039495;28;20188;-69
2022/07/25 02:41:13;;;;;;;7.20;6.50;;;;;;;21.17;100.00;100931.88;5042341;28;20209;-69
2022/07/25 02:43:38;;;;;;;9.93;6.37;;;;;;;21.17;100.00;100927.25;5040544;28;20722;-69
2022/07/25 02:46:04;;;;;;;6.93;6.00;;;;;;;21.26;100.00;100930.28;5040459;28;20187;-69
2022/07/25 02:48:29;;;;;;;7.00;6.40;;;;;;;21.24;100.00;100932.47;5033634;28;20196;-69
2022/07/25 02:50:55;;;;;;;7.13;6.43;;;;;;;20.94;100.00;100893.09;5034710;28;20482;-69
2022/07/25 02:53:20;;;;;;;7.07;6.40;;;;;;;21.11;100.00;100917.41;5039829;28;20196;-69
2022/07/25 02:55:46;;;;;;;7.57;6.87;;;;;;;20.93;100.00;100901.53;5042859;28;20270;-71
2022/07/25 02:58:11;;;;;;;8.23;7.43;;;;;;;20.84;100.00;100875.88;5048234;28;20251;-69
2022/07/25 03:00:37;;;;;;;6.60;6.00;;;;;;;20.99;100.00;100917.63;5044017;28;20219;-68
2022/07/25 03:03:02;;;;;;;7.33;6.30;;;;;;;20.94;100.00;100920.38;5045869;28;20757;-69
2022/07/25 03:05:27;;;;;;;7.83;7.10;;;;;;;20.89;100.00;100895.81;5038578;28;20617;-68
2022/07/25 03:07:53;;;;;;;8.20;7.50;;;;;;;20.80;100.00;100902.00;5043519;28;20192;-69
2022/07/25 03:10:18;;;;;;;8.63;7.70;;;;;;;20.81;100.00;100896.31;5045100;28;20195;-69
2022/07/25 03:12:44;;;;;;;8.00;7.17;;;;;;;20.76;100.00;100899.00;5040032;28;20191;-68
2022/07/25 03:15:11;;;;;;;7.27;6.57;;;;;;;20.80;100.00;100883.78;5040148;28;20190;-69
2022/07/25 03:17:38;;;;;;;8.27;7.47;;;;;;;20.73;100.00;100881.28;5037787;28;20607;-69
2022/07/25 03:20:07;;;;;;;8.13;7.37;;;;;;;20.84;100.00;100879.41;5044792;28;20437;-68
2022/07/25 03:22:32;;;;;;;8.07;7.27;;;;;;;20.73;100.00;100881.28;5038584;28;20438;-68
2022/07/25 03:24:58;;;;;;;8.47;7.67;;;;;;;20.79;100.00;100865.75;5042874;28;20481;-69
2022/07/25 03:27:23;;;;;;;6.97;6.37;;;;;;;20.92;100.00;100865.28;5045042;28;20198;-69
2022/07/25 03:29:49;;;;;;;7.50;6.70;;;;;;;20.83;100.00;100857.84;5048114;28;20179;-69
2022/07/25 03:32:14;;;;;;;8.80;7.60;;;;;;;20.61;100.00;100847.97;5048902;28;20711;-69
2022/07/25 03:34:40;;;;;;;7.50;6.80;;;;;;;20.82;100.00;100853.50;5043451;28;20672;-69
2022/07/25 03:37:05;;;;;;;7.40;6.80;;;;;;;20.68;100.00;100831.38;5041453;28;20610;-69
2022/07/25 03:39:32;;;;;;;7.40;6.60;;;;;;;20.85;100.00;100844.78;5041589;28;20194;-69
2022/07/25 03:41:57;;;;;;;6.50;5.90;;;;;;;20.95;100.00;100833.94;5041441;28;21439;-69
2022/07/25 03:44:24;;;;;;;6.77;6.17;;;;;;;20.95;100.00;100839.38;5045732;28;20827;-69
2022/07/25 03:46:50;;;;;;;7.20;6.53;;;;;;;20.87;100.00;100832.53;5038755;28;20199;-69
2022/07/25 03:49:16;;;;;;;6.90;6.17;;;;;;;20.81;100.00;100836.34;5037038;28;20446;-69
2022/07/25 03:51:42;;;;;;;9.73;7.07;;;;;;;20.80;100.00;100821.06;5044874;28;20449;-69
2022/07/25 03:54:12;;;;;;;14.10;7.03;;;;;;;20.76;100.00;100812.59;5049541;28;20295;-69
2022/07/25 03:56:44;;;;;;;8.03;6.77;;;;;;;20.93;100.00;100836.91;5044701;28;20276;-69
2022/07/25 03:59:15;;;;;;;8.33;7.50;;;;;;;20.47;100.00;100803.19;5052576;28;20825;-69
2022/07/25 04:01:42;;;;;;;7.23;6.63;;;;;;;20.82;100.00;100827.06;5050614;28;20445;-69
2022/07/25 04:04:08;;;;;;;7.40;6.70;;;;;;;21.04;100.00;100806.97;5046361;28;20873;-69
2022/07/25 04:06:34;;;;;;;6.90;6.20;;;;;;;21.10;100.00;100808.59;5043893;28;20492;-69
2022/07/25 04:08:59;;;;;;;6.70;6.10;;;;;;;21.04;100.00;100807.78;5050364;28;20449;-69
2022/07/25 04:11:26;;;;;;;8.40;6.83;;;;;;;21.21;100.00;100810.28;5046144;28;20877;-69
2022/07/25 04:13:52;;;;;;;7.47;6.77;;;;;;;21.13;100.00;100810.78;5047796;28;20303;-69
2022/07/25 04:16:19;;;;;;;8.43;7.63;;;;;;;20.71;100.00;100809.03;5035887;28;20528;-68
2022/07/25 04:18:44;;;;;;;8.10;6.77;;;;;;;20.82;100.00;100794.34;5040081;28;20808;-68
2022/07/25 04:21:09;;;;;;;6.97;6.27;;;;;;;21.02;100.00;100774.50;5043554;28;20461;-68
2022/07/25 04:23:35;;;;;;;7.13;6.40;;;;;;;20.92;100.00;100772.59;5038885;28;20226;-68
2022/07/25 04:26:01;;;;;;;8.13;7.40;;;;;;;20.82;100.00;100790.81;5041551;28;20196;-69
2022/07/25 04:28:26;;;;;;;6.80;6.20;;;;;;;21.03;100.00;100791.66;5037601;28;20245;-68
2022/07/25 04:30:52;;;;;;;8.63;7.67;;;;;;;21.02;100.00;100787.31;5039604;28;20710;-69
2022/07/25 04:33:19;;;;;;;6.00;5.40;;;;;;;21.08;100.00;100770.69;5040616;28;20214;-69
2022/07/25 04:35:45;;;;;;;8.07;7.07;;;;;;;20.98;100.00;100790.59;5038253;28;20453;-68
2022/07/25 04:38:10;;;;;;;7.47;6.77;;;;;;;20.98;100.00;100771.50;5052328;28;20444;-69
2022/07/25 04:40:38;;;;;;;6.50;5.90;;;;;;;20.98;100.00;100771.50;5068350;28;20190;-69
2022/07/25 04:43:03;;;;;;;6.50;5.90;;;;;;;20.81;100.00;100732.75;5046520;28;20596;-69
2022/07/25 04:45:29;;;;;;;6.97;6.27;;;;;;;21.11;100.00;100782.97;5047763;28;20442;-69
2022/07/25 04:47:55;;;;;;;6.87;6.17;;;;;;;21.09;100.00;100771.50;5047291;28;20190;-69
2022/07/25 04:50:21;;;;;;;6.40;5.80;;;;;;;21.15;100.00;100765.00;5046558;28;20446;-68
2022/07/25 04:52:46;;;;;;;7.13;6.17;;;;;;;20.96;100.00;100760.03;5042840;28;20636;-68
2022/07/25 04:55:12;;;;;;;7.20;6.50;;;;;;;20.95;100.00;100754.88;5045217;28;20179;-68
2022/07/25 04:57:37;;;;;;;6.30;5.70;;;;;;;21.31;100.00;100765.81;5052552;28;20195;-69
2022/07/25 05:00:07;;;;;;;6.97;6.10;;;;;;;21.27;100.00;100762.00;5050045;28;20183;-69
2022/07/25 05:02:33;;;;;;;7.20;5.73;;;;;;;21.32;100.00;100760.09;5049745;28;20199;-68
2022/07/25 05:04:59;;;;;;;11.17;6.00;;;;;;;21.33;100.00;100739.09;5043599;28;20463;-69
2022/07/25 05:07:24;;;;;;;8.20;6.87;;;;;;;21.56;100.00;100775.94;5042063;28;20215;-68
2022/07/25 05:09:50;;;;;;;10.63;7.57;;;;;;;21.32;100.00;100740.16;5050876;28;20186;-69
2022/07/25 05:12:15;;;;;;;7.90;6.90;;;;;;;21.46;100.00;100752.19;5047539;28;20607;-69
2022/07/25 05:14:40;;;;;;;10.17;7.87;;;;;;;21.56;100.00;100759.56;5060320;28;20282;-69
2022/07/25 05:17:06;;;;;;;8.37;7.57;;;;;;;21.62;100.00;100759.28;5048847;28;20226;-68
2022/07/25 05:19:32;;;;;;;9.10;8.20;;;;;;;21.51;100.00;100744.00;5064446;28;20661;-69
2022/07/25 05:21:57;;;;;;;10.60;7.77;;;;;;;21.52;100.00;100736.63;5044603;28;20636;-68
2022/07/25 05:24:23;;;;;;;8.50;7.57;;;;;;;21.52;100.00;100734.72;5046999;28;20214;-68
2022/07/25 05:26:49;;;;;;;13.80;8.57;;;;;;;21.54;100.00;100726.28;5048612;28;20732;-68
2022/07/25 05:29:14;;;;;;;10.33;8.50;;;;;;;21.67;100.00;100745.63;5044812;28;20196;-68
2022/07/25 05:31:40;;;;;;;11.60;8.77;;;;;;;21.71;100.00;100745.09;5048804;28;20442;-69
2022/07/25 05:34:06;;;;;;;9.00;8.10;;;;;;;21.79;100.00;100739.88;5050067;28;20257;-68
2022/07/25 05:36:32;;;;;;;11.23;8.90;;;;;;;21.77;100.00;100738.53;5046885;28;20723;-68
2022/07/25 05:38:57;;;;;;;8.57;7.60;;;;;;;21.73;100.00;100743.72;5057737;28;20664;-68
2022/07/25 05:41:23;;;;;;;9.57;7.90;;;;;;;21.73;100.00;100737.44;5048022;28;20985;-69
2022/07/25 05:43:48;;;;;;;9.53;8.37;;;;;;;21.74;100.00;100745.34;5046153;28;20214;-68
2022/07/25 05:46:14;;;;;;;9.40;8.33;;;;;;;21.65;100.00;100742.34;5038960;28;20200;-69
2022/07/25 05:48:40;;;;;;;9.70;8.20;;;;;;;21.67;100.00;100723.00;5047174;28;20199;-68
2022/07/25 05:51:06;;;;;;;11.33;9.60;;;;;;;21.59;100.00;100718.91;5043324;28;20190;-69
2022/07/25 05:53:32;;;;;;;11.73;9.80;;;;;;;21.48;100.00;100695.44;5047046;28;20804;-69
2022/07/25 05:55:57;;;;;;;10.43;9.40;;;;;;;21.18;100.00;100649.91;5044271;28;20203;-69
2022/07/25 05:58:23;;;;;;;9.47;8.50;;;;;;;21.67;100.00;100723.81;5040262;28;20188;-68
2022/07/25 06:00:49;;;;;;;15.07;9.17;;;;;;;21.72;100.00;100703.84;5045648;28;20187;-68
2022/07/25 06:03:16;;;;;;;10.40;9.30;;;;;;;21.80;100.00;100707.94;5046748;28;20227;-69
2022/07/25 06:05:42;;;;;;;10.67;9.07;;;;;;;21.79;100.00;100712.59;5040764;28;20449;-69
2022/07/25 06:08:07;;;;;;;12.53;8.53;;;;;;;21.82;100.00;100708.50;5043336;28;20577;-69
2022/07/25 06:10:33;;;;;;;12.30;9.40;;;;;;;21.92;100.00;100705.72;5042762;28;20665;-69
2022/07/25 06:12:58;;;;;;;11.77;8.17;;;;;;;22.01;100.00;100722.34;5056530;28;20888;-69
2022/07/25 06:15:24;;;;;;;11.53;8.63;;;;;;;21.91;100.00;100700.53;5035582;28;20183;-69
2022/07/25 06:17:49;;;;;;;13.93;9.03;;;;;;;21.87;100.00;100687.44;5052491;28;20214;-69
2022/07/25 06:20:15;;;;;;;10.73;9.20;;;;;;;21.87;100.00;100678.41;5050267;28;20259;-70
2022/07/25 06:22:40;;;;;;;10.57;9.47;;;;;;;22.07;100.00;100699.38;5047141;28;20191;-70
2022/07/25 06:25:06;;;;;;;12.10;9.93;;;;;;;21.87;100.00;100664.75;5050277;28;20572;-70
2022/07/25 06:27:32;;;;;;;10.00;8.73;;;;;;;22.15;100.00;100698.81;5049207;28;20211;-70
2022/07/25 06:29:57;;;;;;;12.90;9.20;;;;;;;22.16;100.00;100703.19;5046704;28;20996;-70
2022/07/25 06:32:23;;;;;;;11.50;9.47;;;;;;;22.17;100.00;100704.84;5042849;28;20614;-71
2022/07/25 06:34:48;;;;;;;11.20;9.63;;;;;;;22.07;100.00;100685.72;5045953;28;20212;-70
2022/07/25 06:37:14;;;;;;;12.07;9.63;;;;;;;22.34;100.00;100704.50;5041487;28;20214;-70
2022/07/25 06:39:40;;;;;;;10.37;9.27;;;;;;;22.33;100.00;100687.28;5034562;28;20206;-70
2022/07/25 06:42:05;;;;;;;15.13;8.80;;;;;;;22.38;100.00;100678.22;5039358;28;20522;-70
2022/07/25 06:44:32;;;;;;;8.60;7.70;;;;;;;22.66;100.00;100705.97;5041968;28;20249;-70
2022/07/25 06:47:02;;;;;;;15.77;10.63;;;;;;;22.58;100.00;100687.44;5047022;28;20195;-70
2022/07/25 06:49:27;;;;;;;9.43;8.53;;;;;;;22.51;100.00;100671.34;5047228;28;20436;-70
2022/07/25 06:51:53;;;;;;;9.33;8.40;;;;;;;22.72;100.00;100697.44;5045180;28;26729;-70
2022/07/25 06:54:18;;;;;;;10.80;9.70;;;;;;;22.84;100.00;100691.63;5047172;28;20211;-70
2022/07/25 06:56:44;;;;;;;10.10;9.07;;;;;;;22.86;100.00;100711.31;5047888;28;20664;-70
2022/07/25 06:59:11;;;;;;;9.97;8.97;;;;;;;22.86;100.00;100708.56;5047353;28;20611;-70
2022/07/25 07:01:36;;;;;;;8.87;8.07;;;;;;;22.75;100.00;100698.78;5043966;28;20442;-70
2022/07/25 07:04:02;;;;;;;10.50;8.10;;;;;;;22.86;100.00;100722.25;5045574;28;20891;-70
2022/07/25 07:06:27;;;;;;;9.83;8.93;;;;;;;22.69;100.00;100678.06;5041097;28;20198;-70
2022/07/25 07:08:53;;;;;;;9.57;8.63;;;;;;;22.69;100.00;100676.13;5059691;28;20191;-70
2022/07/25 07:11:18;;;;;;;11.57;9.40;;;;;;;22.89;100.00;100693.50;5048078;28;20191;-71
2022/07/25 07:13:44;;;;;;;10.33;7.70;;;;;;;22.86;100.00;100675.75;5051741;28;20706;-71
2022/07/25 07:16:10;;;;;;;10.00;8.80;;;;;;;22.84;100.00;100658.81;5049588;28;20192;-70
2022/07/25 07:18:37;;;;;;;12.93;8.77;;;;;;;23.15;100.00;100700.44;5053517;28;20200;-70
2022/07/25 07:21:04;;;;;;;12.33;8.40;;;;;;;23.37;100.00;100688.19;5051607;28;20188;-71
2022/07/25 07:23:29;;;;;;;9.93;7.80;;;;;;;23.38;100.00;100678.91;5044310;28;22237;-70
2022/07/25 07:25:55;;;;;;;8.37;7.13;;;;;;;23.37;100.00;100663.56;5048435;28;20566;-70
2022/07/25 07:28:20;;;;;;;9.43;7.87;;;;;;;23.58;100.00;100662.28;5049009;28;20675;-70
2022/07/25 07:30:46;;;;;;;10.00;8.60;;;;;;;23.84;100.00;100667.50;5045416;28;20278;-70
2022/07/25 07:33:11;;;;;;;7.37;6.67;;;;;;;23.90;100.00;100674.56;5052424;28;20211;-70
2022/07/25 07:35:37;;;;;;;10.00;7.70;;;;;;;23.93;100.00;100663.00;5049092;28;20187;-70
2022/07/25 07:38:02;;;;;;;8.60;7.70;;;;;;;23.87;100.00;100653.22;5043870;28;20184;-70
2022/07/25 07:40:28;;;;;;;7.87;7.00;;;;;;;23.97;100.00;100674.19;5051368;28;20257;-70
2022/07/25 07:42:55;;;;;;;8.20;7.37;;;;;;;23.83;100.00;100661.19;5056420;28;21363;-71
2022/07/25 07:45:23;;;;;;;8.90;6.60;;;;;;;23.87;100.00;100675.94;5045893;28;20271;-70
2022/07/25 07:47:50;;;;;;;8.17;7.17;;;;;;;23.81;100.00;100648.88;5044407;28;20653;-70
2022/07/25 07:50:18;;;;;;;6.83;6.23;;;;;;;23.95;100.00;100662.69;5045982;28;20755;-70
2022/07/25 07:52:45;;;;;;;8.97;7.00;;;;;;;23.93;100.00;100651.25;5047564;28;20794;-70
2022/07/25 07:57:55;;;;;;;8.67;7.07;;;;;;;23.89;100.00;100635.38;5052262;28;20449;-70
2022/07/25 08:00:22;;;;;;;9.10;7.10;;;;;;;24.01;100.00;100653.31;5053293;28;20445;-70
2022/07/25 08:02:50;;;;;;;7.63;6.40;;;;;;;24.19;100.00;100671.72;5050098;28;20469;-70
2022/07/25 08:05:27;;;;;;;8.63;7.17;;;;;;;24.17;100.00;100673.13;5044776;28;20753;-70
2022/07/25 08:07:53;;;;;;;9.70;7.90;;;;;;;24.23;100.00;100672.75;5053192;28;20962;-70
2022/07/25 08:10:24;;;;;;;9.23;7.03;;;;;;;24.28;100.00;100675.44;5048730;28;20442;-70
2022/07/25 08:12:50;;;;;;;8.33;6.80;;;;;;;24.28;100.00;100669.94;5065867;28;20422;-70
2022/07/25 08:15:16;;;;;;;7.90;6.93;;;;;;;24.26;100.00;100661.19;5050236;28;20492;-68
2022/07/25 08:17:43;;;;;;;7.47;5.90;;;;;;;24.27;100.00;100654.63;5046647;28;20196;-68
2022/07/25 08:20:10;;;;;;;7.10;6.40;;;;;;;24.26;100.00;100654.91;5037759;28;20442;-68
2022/07/25 08:22:53;;;;;;;9.43;8.00;;;;;;;24.35;100.00;100642.16;5052397;28;20572;-68
2022/07/25 08:25:20;;;;;;;9.60;8.33;;;;;;;24.25;100.00;100647.81;5055027;28;20799;-68
2022/07/25 08:27:46;;;;;;;7.20;6.50;;;;;;;24.41;100.00;100645.66;5054497;28;20454;-68
2022/07/25 08:30:13;;;;;;;8.00;7.20;;;;;;;24.43;100.00;100647.03;5054442;28;20464;-68
2022/07/25 08:32:57;;;;;;;9.00;8.10;;;;;;;24.36;100.00;100663.00;5069363;28;20850;-68
2022/07/25 08:35:24;;;;;;;7.90;7.10;;;;;;;24.42;100.00;100645.38;5048948;28;20434;-68
2022/07/25 08:37:50;;;;;;;9.33;7.57;;;;;;;24.60;100.00;100649.25;5047560;28;20445;-68
2022/07/25 08:40:18;;;;;;;7.30;6.57;;;;;;;24.63;100.00;100639.63;5055380;28;20425;-68
2022/07/25 08:42:45;;;;;;;8.53;7.47;;;;;;;24.81;100.00;100653.28;5054455;28;20453;-67
2022/07/25 08:45:12;;;;;;;6.13;5.47;;;;;;;24.85;100.00;100655.44;5051236;28;20474;-68
2022/07/25 08:47:39;;;;;;;9.23;8.20;;;;;;;24.67;100.00;100655.16;5053152;28;20529;-68
2022/07/25 08:50:08;;;;;;;6.57;5.97;;;;;;;24.65;100.00;100648.34;5051015;28;20877;-68
2022/07/25 08:52:34;;;;;;;10.40;6.57;;;;;;;24.28;100.00;100626.09;5054379;28;20420;-67
2022/07/25 08:55:13;;;;;;;11.60;5.97;;;;;;;24.37;100.00;100653.66;5052717;28;20417;-68
2022/07/25 08:57:42;;;;;;;7.40;6.23;;;;;;;24.18;100.00;100648.16;5053605;28;20430;-68
2022/07/25 09:00:09;;;;;;;6.43;5.73;;;;;;;24.30;100.00;100650.47;5053174;28;20417;-68
2022/07/25 09:02:34;;;;;;;7.93;6.63;;;;;;;24.28;100.00;100669.16;5056022;28;20430;-68
2022/07/25 09:05:00;;;;;;;7.63;6.20;;;;;;;24.38;100.00;100666.25;5054599;28;20461;-68
2022/07/25 09:07:39;;;;;;;6.70;6.10;;;;;;;24.51;100.00;100665.56;5052253;28;20195;-68
2022/07/25 09:10:18;;;;;;;5.97;5.07;;;;;;;24.54;100.00;100673.19;5039272;28;20635;-68
2022/07/25 09:12:58;;;;;;;7.43;6.70;;;;;;;24.33;100.00;100636.19;5055176;28;20535;-68
2022/07/25 09:15:26;;;;;;;6.63;5.93;;;;;;;24.45;100.00;100674.16;5055024;28;20423;-70
2022/07/25 09:17:53;;;;;;;6.80;6.10;;;;;;;24.10;100.00;100655.13;5052486;28;20860;-70
2022/07/25 09:20:20;;;;;;;7.80;6.90;;;;;;;24.18;100.00;100663.78;5052355;28;20418;-70
2022/07/25 09:22:46;;;;;;;6.20;5.60;;;;;;;24.25;100.00;100665.06;5053302;28;20422;-70
2022/07/25 09:25:32;;;;;;;5.73;5.17;;;;;;;24.17;100.00;100659.44;5056733;28;20477;-70
2022/07/25 09:28:09;;;;;;;6.43;4.47;;;;;;;24.01;100.00;100669.75;5051392;28;20560;-70
2022/07/25 09:30:34;;;;;;;4.30;3.90;;;;;;;24.00;100.00;100668.94;5052446;28;20433;-71
2022/07/25 09:33:00;;;;;;;5.50;3.90;;;;;;;23.80;100.00;100652.75;5051868;28;20457;-70
2022/07/25 09:35:37;;;;;;;3.07;2.77;;;;;;;24.01;100.00;100664.28;5054347;28;20823;-70
2022/07/25 09:38:10;;;;;;;4.40;3.70;;;;;;;24.06;100.00;100651.31;5053205;28;20420;-70
2022/07/25 09:40:36;;;;;;;6.13;3.17;;;;;;;24.08;100.00;100656.53;5051027;28;20449;-71
2022/07/25 09:43:01;;;;;;;4.70;4.23;;;;;;;24.07;100.00;100647.50;5050844;28;20461;-70
2022/07/25 09:45:27;;;;;;;3.93;3.50;;;;;;;23.96;100.00;100640.50;5050959;28;20231;-70
2022/07/25 09:48:03;;;;;;;4.43;3.37;;;;;;;23.98;100.00;100673.88;5055701;28;20184;-71
2022/07/25 09:50:31;;;;;;;3.73;3.13;;;;;;;24.13;100.00;100684.69;5054656;28;20574;-70
2022/07/25 09:52:59;;;;;;;3.60;3.30;;;;;;;24.11;100.00;100689.63;5050039;28;20454;-70
2022/07/25 09:55:25;;;;;;;4.47;3.53;;;;;;;24.04;100.00;100685.59;5056556;28;20423;-70
2022/07/25 09:57:53;;;;;;;3.47;3.17;;;;;;;24.01;100.00;100676.06;5052112;28;20438;-70
2022/07/25 10:00:30;;;;;;;4.20;3.30;;;;;;;24.05;100.00;100681.78;5057360;28;20175;-70
2022/07/25 10:03:13;;;;;;;7.63;3.70;;;;;;;24.06;100.00;100697.91;5055947;28;20839;-70
2022/07/25 10:06:11;;;;;;;11.70;4.27;;;;;;;24.03;100.00;100694.94;5058022;28;20441;-70
2022/07/25 10:08:38;;;;;;;4.47;4.03;;;;;;;24.06;100.00;100700.63;5059432;28;20445;-70
2022/07/25 10:11:05;;;;;;;4.40;3.70;;;;;;;24.05;100.00;100692.72;5060764;28;20951;-70
2022/07/25 10:13:35;;;;;;;7.20;3.50;;;;;;;24.35;100.00;100692.31;5058264;28;20454;-70
2022/07/25 10:16:01;;;;;;;5.27;4.47;;;;;;;24.38;100.00;100690.09;5056324;28;20441;-70
2022/07/25 10:18:28;;;;;;;4.50;3.90;;;;;;;24.54;100.00;100675.94;5059922;28;20798;-70
2022/07/25 10:21:08;;;;;;;4.87;4.47;;;;;;;24.36;100.00;100676.72;5059875;28;20184;-70
2022/07/25 10:23:33;;;;;;;5.23;3.67;;;;;;;24.41;100.00;100673.88;5060818;28;20503;-70
2022/07/25 10:26:08;;;;;;;6.30;4.73;;;;;;;24.60;100.00;100692.31;5054715;28;20453;-70
2022/07/25 10:28:42;;;;;;;7.93;5.10;;;;;;;24.63;100.00;100675.25;5057374;28;20174;-68
2022/07/25 10:31:16;;;;;;;4.80;4.40;;;;;;;24.79;100.00;100679.38;5074819;28;20453;-67
2022/07/25 10:33:42;;;;;;;6.63;4.70;;;;;;;24.67;100.00;100682.59;5057047;28;20705;-70
2022/07/25 10:36:09;;;;;;;5.47;4.97;;;;;;;24.53;100.00;100676.22;5053806;28;20612;-70
2022/07/25 10:38:39;;;;;;;9.53;5.30;;;;;;;23.85;100.00;100562.31;5056498;28;20190;-70
2022/07/25 10:41:07;;;;;;;6.63;5.30;;;;;;;24.58;100.00;100667.91;5066265;28;20832;-68
2022/07/25 10:43:38;;;;;;;4.63;4.13;;;;;;;24.89;100.00;100695.69;5043603;28;20953;-68
2022/07/25 10:46:12;;;;;;;8.97;5.50;;;;;;;24.57;100.00;100672.59;5068975;28;20434;-68
2022/07/25 10:48:38;;;;;;;7.17;4.93;;;;;;;24.55;100.00;100704.16;5072549;28;20926;-68
2022/07/25 10:51:09;;;;;;;9.33;5.30;;;;;;;24.66;100.00;100708.38;5056908;28;20424;-67
2022/07/25 10:53:47;;;;;;;5.37;4.60;;;;;;;24.65;100.00;100720.47;5054386;28;20200;-68
2022/07/25 10:56:18;;;;;;;4.63;3.63;;;;;;;24.74;100.00;100693.19;5055106;28;20430;-68
2022/07/25 10:58:53;;;;;;;5.43;3.90;;;;;;;24.88;100.00;100709.69;5055778;28;20445;-68
2022/07/25 11:01:36;;;;;;;4.50;4.10;;;;;;;24.85;100.00;100694.69;5062025;28;20429;-70
2022/07/25 11:04:04;;;;;;;4.20;3.47;;;;;;;24.80;100.00;100701.03;5061888;28;20549;-70
2022/07/25 11:06:29;;;;;;;3.90;2.90;;;;;;;24.87;100.00;100684.19;5061966;28;20418;-70
2022/07/25 11:08:56;;;;;;;3.87;3.30;;;;;;;24.90;100.00;100678.13;5049916;22;20502;-66
2022/07/25 11:11:47;;;;;;;7.50;2.93;;;;;;;25.07;100.00;100693.22;5025537;28;20283;-67
2022/07/25 11:14:30;;;;;;;3.60;2.70;;;;;;;24.91;100.00;100678.94;5014376;28;20957;-66
2022/07/25 11:16:56;;;;;;;3.70;2.50;;;;;;;24.99;100.00;100684.53;5010240;28;21373;-66
2022/07/25 11:19:22;;;;;;;2.60;1.70;;;;;;;24.34;100.00;100679.72;5005903;28;20502;-66